Time;durP1;ratioP1;P1;durP2;ratioP2;P2;SDS_P1;SDS_P2;PMS_P1;PMS_P2;Temp;Humidity;BMP_temperature;BMP_pressure;BME280_temperature;BME280_humidity;BME280_pressure;Samples;Min_cycle;Max_cycle;Signal;HPM_P1;HPM_P2
2023/12/24 00:01:51;;;;;;;;;;;;;;;17.64;61.97;99808.53;7389022;19;1303;-48
2023/12/24 00:04:19;;;;;;;;;;;;;;;17.45;62.22;99785.47;7392694;19;1039;-47
2023/12/24 00:06:47;;;;;;;;;;;;;;;17.37;62.66;99785.38;7390683;19;1859;-48
2023/12/24 00:09:18;;;;;;;;;;;;;;;17.29;62.81;99795.97;7391695;19;1492;-47
2023/12/24 00:11:46;;;;;;;;;;;;;;;17.49;62.54;99802.88;7388354;19;1812;-47
2023/12/24 00:14:15;;;;;;;;;;;;;;;17.97;61.11;99784.03;7390435;19;1259;-48
2023/12/24 00:16:43;;;;;;;;;;;;;;;18.13;60.48;99778.81;7392396;19;944;-48
2023/12/24 00:19:12;;;;;;;;;;;;;;;17.87;61.25;99792.13;7390963;19;1442;-48
2023/12/24 00:21:42;;;;;;;;;;;;;;;17.47;61.52;99759.41;7377119;19;1940;-48
2023/12/24 00:24:10;;;;;;;;;;;;;;;17.45;62.09;99814.03;7390537;19;1571;-48
2023/12/24 00:26:41;;;;;;;;;;;;;;;17.43;62.09;99822.19;7390393;19;1874;-48
2023/12/24 00:29:09;;;;;;;;;;;;;;;17.33;62.38;99834.75;7390442;19;1985;-47
2023/12/24 00:31:38;;;;;;;;;;;;;;;17.59;61.87;99812.69;7390137;19;1826;-48
2023/12/24 00:34:06;;;;;;;;;;;;;;;18.00;60.71;99818.47;7390007;19;1796;-48
2023/12/24 00:36:34;;;;;;;;;;;;;;;18.04;60.57;99831.38;7389877;19;1642;-48
2023/12/24 00:39:03;;;;;;;;;;;;;;;17.80;61.08;99823.09;7388830;19;1358;-48
2023/12/24 00:41:32;;;;;;;;;;;;;;;17.54;61.74;99826.47;7390454;19;1343;-48
2023/12/24 00:44:03;;;;;;;;;;;;;;;17.47;62.09;99847.63;7388721;19;1587;-47
2023/12/24 00:46:31;;;;;;;;;;;;;;;17.42;62.09;99831.19;7389050;19;1840;-47
2023/12/24 00:48:57;;;;;;;;;;;;;;;17.29;62.19;99822.69;7389620;19;1713;-48
2023/12/24 00:51:26;;;;;;;;;;;;;;;17.66;61.60;99845.84;7390231;19;1141;-48
2023/12/24 00:53:54;;;;;;;;;;;;;;;18.08;60.46;99822.09;7389193;19;1946;-48
2023/12/24 00:56:22;;;;;;;;;;;;;;;18.26;59.90;99843.50;7389149;19;1153;-48
2023/12/24 00:58:51;;;;;;;;;;;;;;;17.96;60.68;99858.06;7389713;19;1689;-48
2023/12/24 01:01:21;;;;;;;;;;;;;;;17.64;61.21;99827.25;7389544;19;1496;-48
2023/12/24 01:03:50;;;;;;;;;;;;;;;17.47;61.71;99842.28;7388787;19;2125;-47
2023/12/24 01:06:18;;;;;;;;;;;;;;;17.40;62.08;99846.53;7387907;19;2005;-47
2023/12/24 01:08:46;;;;;;;;;;;;;;;17.28;62.48;99867.25;7390229;19;1842;-48
2023/12/24 01:11:15;;;;;;;;;;;;;;;17.61;61.69;99869.53;7390798;19;938;-47
2023/12/24 01:13:43;;;;;;;;;;;;;;;18.01;60.71;99866.50;7388361;19;1421;-47
2023/12/24 01:16:11;;;;;;;;;;;;;;;18.36;59.79;99858.63;7389201;19;1909;-47
2023/12/24 01:18:43;;;;;;;;;;;;;;;18.31;59.47;99864.44;7387607;19;1484;-47
2023/12/24 01:21:11;;;;;;;;;;;;;;;17.99;60.47;99884.53;7375234;19;1377;-47
2023/12/24 01:23:39;;;;;;;;;;;;;;;17.63;61.28;99854.16;7389534;19;1819;-47
2023/12/24 01:26:08;;;;;;;;;;;;;;;17.42;61.76;99847.22;7387807;19;1842;-47
2023/12/24 01:28:36;;;;;;;;;;;;;;;17.36;61.96;99866.50;7387714;19;1508;-47
2023/12/24 01:31:04;;;;;;;;;;;;;;;17.24;62.38;99875.69;7387622;19;1397;-47
2023/12/24 01:33:33;;;;;;;;;;;;;;;17.45;62.08;99886.19;7388449;19;1831;-47
2023/12/24 01:36:03;;;;;;;;;;;;;;;17.93;60.79;99895.00;7389001;19;1759;-47
2023/12/24 01:38:32;;;;;;;;;;;;;;;18.18;59.96;99883.53;7386374;19;1598;-47
2023/12/24 01:41:00;;;;;;;;;;;;;;;17.91;60.46;99905.00;7389174;19;1496;-47
2023/12/24 01:43:28;;;;;;;;;;;;;;;17.62;61.07;99890.72;7386695;19;1741;-47
2023/12/24 01:45:57;;;;;;;;;;;;;;;17.40;61.70;99886.59;7386239;19;1846;-47
2023/12/24 01:48:26;;;;;;;;;;;;;;;17.31;61.81;99890.19;7387116;19;1741;-48
2023/12/24 01:50:57;;;;;;;;;;;;;;;17.23;62.17;99890.03;7394068;19;1827;-47
2023/12/24 01:53:28;;;;;;;;;;;;;;;17.60;61.40;99910.59;7395036;19;1453;-47
2023/12/24 01:55:56;;;;;;;;;;;;;;;18.06;60.13;99912.38;7395142;19;1577;-47
2023/12/24 01:58:25;;;;;;;;;;;;;;;18.00;60.34;99920.97;7395328;19;1391;-47
2023/12/24 02:00:53;;;;;;;;;;;;;;;17.74;60.75;99928.81;7395653;19;1164;-48
2023/12/24 02:03:22;;;;;;;;;;;;;;;17.50;61.36;99914.13;7396332;19;1031;-47
2023/12/24 02:05:50;;;;;;;;;;;;;;;17.33;61.72;99930.97;7394668;19;1922;-47
2023/12/24 02:08:21;;;;;;;;;;;;;;;17.29;61.79;99929.56;7393121;19;1558;-47
2023/12/24 02:10:52;;;;;;;;;;;;;;;17.30;61.91;99931.22;7394302;19;1918;-47
2023/12/24 02:13:21;;;;;;;;;;;;;;;18.03;60.21;99933.22;7394593;19;1397;-47
2023/12/24 02:15:53;;;;;;;;;;;;;;;18.32;59.23;99951.75;7395609;19;1670;-47
2023/12/24 02:18:21;;;;;;;;;;;;;;;18.01;59.76;99964.63;7393879;19;1425;-47
2023/12/24 02:20:50;;;;;;;;;;;;;;;17.70;60.52;99965.69;7395210;19;1405;-48
2023/12/24 02:23:20;;;;;;;;;;;;;;;17.44;61.46;99962.84;7379165;19;1667;-47
2023/12/24 02:25:51;;;;;;;;;;;;;;;17.33;61.50;99976.38;7393393;19;1837;-47
2023/12/24 02:28:23;;;;;;;;;;;;;;;17.25;61.94;99979.78;7394501;19;1401;-48
2023/12/24 02:30:53;;;;;;;;;;;;;;;17.53;61.24;99957.59;7394829;19;1620;-47
2023/12/24 02:33:22;;;;;;;;;;;;;;;18.17;59.76;99996.09;7393828;19;1791;-47
2023/12/24 02:35:51;;;;;;;;;;;;;;;18.88;57.80;99984.66;7394324;19;1574;-47
2023/12/24 02:38:22;;;;;;;;;;;;;;;19.53;56.21;99980.78;7394049;19;1823;-47
2023/12/24 02:40:51;;;;;;;;;;;;;;;19.81;55.54;99976.94;7391530;19;1465;-47
2023/12/24 02:43:19;;;;;;;;;;;;;;;19.91;55.26;99994.78;7391822;19;1480;-47
2023/12/24 02:45:47;;;;;;;;;;;;;;;20.10;54.93;99994.53;7392466;19;1853;-47
2023/12/24 02:48:15;;;;;;;;;;;;;;;20.13;55.00;99993.38;7394373;19;1579;-47
2023/12/24 02:50:44;;;;;;;;;;;;;;;20.07;54.99;100010.94;7393225;19;1461;-47
2023/12/24 02:53:13;;;;;;;;;;;;;;;20.14;54.94;100027.28;7393562;19;1333;-47
2023/12/24 02:55:44;;;;;;;;;;;;;;;20.20;54.89;100023.94;7393264;19;1475;-47
2023/12/24 02:58:12;;;;;;;;;;;;;;;20.18;54.90;100021.41;7395020;19;1086;-47
2023/12/24 03:00:40;;;;;;;;;;;;;;;20.29;54.77;100027.50;7394539;19;1018;-46
2023/12/24 03:03:09;;;;;;;;;;;;;;;20.23;54.84;100037.03;7393667;19;1780;-47
2023/12/24 03:05:37;;;;;;;;;;;;;;;20.29;54.91;100048.97;7393262;19;1910;-47
2023/12/24 03:08:06;;;;;;;;;;;;;;;20.30;54.64;100053.34;7390614;19;1850;-47
2023/12/24 03:10:34;;;;;;;;;;;;;;;20.40;54.50;100065.63;7391699;19;1273;-47
2023/12/24 03:13:05;;;;;;;;;;;;;;;20.43;54.49;100040.28;7392674;19;1838;-47
2023/12/24 03:15:34;;;;;;;;;;;;;;;20.34;54.77;100049.34;7392341;19;1776;-47
2023/12/24 03:18:02;;;;;;;;;;;;;;;20.01;55.47;100054.53;7390291;19;2068;-47
2023/12/24 03:20:30;;;;;;;;;;;;;;;19.89;55.88;100088.00;7393384;19;1630;-47
2023/12/24 03:22:59;;;;;;;;;;;;;;;19.84;56.19;100065.19;7378274;19;1366;-47
2023/12/24 03:25:27;;;;;;;;;;;;;;;19.79;56.26;100061.28;7392190;19;1603;-46
2023/12/24 03:27:55;;;;;;;;;;;;;;;19.73;56.31;100068.13;7390777;19;1866;-47
2023/12/24 03:30:26;;;;;;;;;;;;;;;19.78;56.24;100089.97;7391570;19;1246;-47
2023/12/24 03:32:54;;;;;;;;;;;;;;;20.02;55.77;100108.06;7392959;19;1808;-47
2023/12/24 03:35:23;;;;;;;;;;;;;;;20.02;55.58;100091.13;7390628;19;1079;-47
2023/12/24 03:37:51;;;;;;;;;;;;;;;20.05;55.48;100106.88;7391946;19;1819;-47
2023/12/24 03:40:19;;;;;;;;;;;;;;;20.04;55.45;100110.59;7391422;19;1497;-47
2023/12/24 03:42:48;;;;;;;;;;;;;;;20.00;55.38;100112.75;7388388;19;1617;-47
2023/12/24 03:45:16;;;;;;;;;;;;;;;20.05;55.49;100105.06;7389886;19;1391;-47
2023/12/24 03:47:47;;;;;;;;;;;;;;;20.04;55.26;100089.97;7390977;19;1846;-47
2023/12/24 03:50:15;;;;;;;;;;;;;;;20.12;55.25;100104.44;7391839;19;1534;-47
2023/12/24 03:52:43;;;;;;;;;;;;;;;20.11;55.17;100124.22;7391979;19;1402;-47
2023/12/24 03:55:12;;;;;;;;;;;;;;;20.18;55.21;100123.41;7391786;19;1390;-47
2023/12/24 03:57:40;;;;;;;;;;;;;;;20.26;54.99;100125.31;7391834;19;1828;-47
2023/12/24 04:00:09;;;;;;;;;;;;;;;20.19;55.21;100122.44;7391096;19;1921;-47
2023/12/24 04:02:38;;;;;;;;;;;;;;;19.51;56.47;100132.97;7391971;19;1654;-47
2023/12/24 04:05:09;;;;;;;;;;;;;;;18.97;58.02;100149.84;7390182;19;1749;-46
2023/12/24 04:07:37;;;;;;;;;;;;;;;18.61;58.73;100130.13;7389775;19;1846;-46
2023/12/24 04:10:06;;;;;;;;;;;;;;;18.38;59.05;100143.06;7392035;19;1329;-47
2023/12/24 04:12:35;;;;;;;;;;;;;;;18.57;59.05;100140.31;7390614;19;1488;-47
2023/12/24 04:15:03;;;;;;;;;;;;;;;18.95;58.03;100149.16;7390292;19;1490;-47
2023/12/24 04:17:34;;;;;;;;;;;;;;;19.23;57.40;100162.53;7389433;19;1892;-47
2023/12/24 04:20:03;;;;;;;;;;;;;;;19.40;56.84;100153.66;7391511;19;1216;-47
2023/12/24 04:22:34;;;;;;;;;;;;;;;19.48;56.72;100144.84;7378016;19;1332;-46
2023/12/24 04:25:02;;;;;;;;;;;;;;;19.41;56.81;100154.50;7391333;19;1929;-47
2023/12/24 04:27:30;;;;;;;;;;;;;;;19.35;56.70;100176.56;7389337;19;1870;-47
2023/12/24 04:29:59;;;;;;;;;;;;;;;19.36;56.76;100173.72;7390358;19;1802;-51
2023/12/24 04:32:27;;;;;;;;;;;;;;;19.26;57.15;100163.06;7390842;19;1748;-47
2023/12/24 04:34:55;;;;;;;;;;;;;;;19.36;56.93;100172.84;7389765;19;1757;-47
2023/12/24 04:37:24;;;;;;;;;;;;;;;19.24;56.82;100174.94;7388506;19;1409;-46
2023/12/24 04:39:55;;;;;;;;;;;;;;;19.23;57.21;100192.84;7388742;19;1489;-47
2023/12/24 04:42:23;;;;;;;;;;;;;;;19.19;57.12;100193.31;7388492;19;1578;-46
2023/12/24 04:44:51;;;;;;;;;;;;;;;19.12;57.37;100178.81;7390871;19;1295;-47
2023/12/24 04:47:20;;;;;;;;;;;;;;;19.13;57.54;100208.16;7389379;19;1837;-47
2023/12/24 04:49:48;;;;;;;;;;;;;;;19.05;57.52;100205.38;7390171;19;1927;-47
2023/12/24 04:52:16;;;;;;;;;;;;;;;19.06;57.59;100210.59;7389316;19;1485;-48
2023/12/24 04:54:44;;;;;;;;;;;;;;;18.93;57.81;100187.81;7390111;19;1808;-46
2023/12/24 04:57:16;;;;;;;;;;;;;;;19.08;57.50;100227.38;7389280;19;1598;-46
2023/12/24 04:59:44;;;;;;;;;;;;;;;19.03;57.59;100228.78;7389050;19;1883;-48
2023/12/24 05:02:12;;;;;;;;;;;;;;;19.04;57.69;100250.09;7389603;19;1640;-48
2023/12/24 05:04:41;;;;;;;;;;;;;;;18.99;57.73;100244.31;7389044;19;1709;-47
2023/12/24 05:07:10;;;;;;;;;;;;;;;18.94;57.52;100240.41;7387226;19;1856;-47
2023/12/24 05:09:40;;;;;;;;;;;;;;;18.91;57.57;100233.50;7389880;19;1925;-47
2023/12/24 05:12:09;;;;;;;;;;;;;;;18.95;57.71;100228.69;7390037;19;1500;-47
2023/12/24 05:14:40;;;;;;;;;;;;;;;18.96;57.75;100241.97;7388167;19;1384;-47
2023/12/24 05:17:09;;;;;;;;;;;;;;;18.96;57.55;100251.81;7390005;19;1588;-47
2023/12/24 05:19:37;;;;;;;;;;;;;;;18.96;57.72;100260.72;7389170;19;1522;-47
2023/12/24 05:22:05;;;;;;;;;;;;;;;18.98;57.39;100260.53;7377783;19;1978;-47
2023/12/24 05:24:34;;;;;;;;;;;;;;;18.93;57.71;100271.72;7391162;19;1831;-47
2023/12/24 05:27:02;;;;;;;;;;;;;;;18.92;57.63;100267.34;7395939;19;1865;-47
2023/12/24 05:29:30;;;;;;;;;;;;;;;18.92;57.68;100287.94;7396198;19;1575;-47
2023/12/24 05:32:02;;;;;;;;;;;;;;;18.85;57.81;100271.59;7396315;19;1757;-47
2023/12/24 05:34:30;;;;;;;;;;;;;;;18.91;57.48;100270.19;7396672;19;1299;-47
2023/12/24 05:37:00;;;;;;;;;;;;;;;18.86;57.55;100284.84;7396224;19;1523;-47
2023/12/24 05:39:29;;;;;;;;;;;;;;;18.62;58.10;100309.44;7395489;19;1678;-47
2023/12/24 05:41:57;;;;;;;;;;;;;;;18.34;58.83;100304.94;7396760;19;1492;-47
2023/12/24 05:44:25;;;;;;;;;;;;;;;18.01;59.67;100307.06;7395928;19;1827;-47
2023/12/24 05:46:54;;;;;;;;;;;;;;;17.88;60.02;100284.09;7394785;19;1843;-47
2023/12/24 05:49:24;;;;;;;;;;;;;;;18.52;58.57;100287.16;7395710;19;1410;-47
2023/12/24 05:51:53;;;;;;;;;;;;;;;18.83;57.83;100289.66;7394417;19;1288;-47
2023/12/24 05:54:21;;;;;;;;;;;;;;;18.91;57.67;100311.19;7395491;19;1828;-46
2023/12/24 05:56:49;;;;;;;;;;;;;;;18.78;57.81;100302.59;7395477;19;1274;-47
2023/12/24 05:59:18;;;;;;;;;;;;;;;18.46;58.52;100301.13;7394278;19;1460;-47
2023/12/24 06:01:46;;;;;;;;;;;;;;;18.20;59.16;100309.72;7393857;19;1394;-47
2023/12/24 06:04:14;;;;;;;;;;;;;;;18.38;58.86;100317.06;7395820;19;1855;-47
2023/12/24 06:06:45;;;;;;;;;;;;;;;18.56;58.68;100311.81;7394681;19;1497;-47
2023/12/24 06:09:14;;;;;;;;;;;;;;;18.87;57.72;100312.47;7391710;19;1844;-47
2023/12/24 06:11:42;;;;;;;;;;;;;;;19.08;57.23;100314.97;7395710;19;1826;-47
2023/12/24 06:14:10;;;;;;;;;;;;;;;19.08;56.79;100342.59;7396260;19;1474;-47
2023/12/24 06:16:38;;;;;;;;;;;;;;;19.06;57.23;100316.94;7394291;19;1931;-47
2023/12/24 06:19:07;;;;;;;;;;;;;;;19.00;57.14;100326.41;7394194;19;1856;-47
2023/12/24 06:21:35;;;;;;;;;;;;;;;19.06;57.04;100317.78;7394635;19;1780;-48
2023/12/24 06:24:06;;;;;;;;;;;;;;;19.19;56.58;100340.72;7380300;19;1701;-48
2023/12/24 06:26:35;;;;;;;;;;;;;;;19.15;56.79;100329.44;7394828;19;1224;-48
2023/12/24 06:29:04;;;;;;;;;;;;;;;19.16;56.54;100333.84;7392044;19;1870;-48
2023/12/24 06:31:32;;;;;;;;;;;;;;;19.16;56.74;100338.31;7393503;19;1192;-48
2023/12/24 06:34:00;;;;;;;;;;;;;;;19.15;56.90;100347.38;7392720;19;1378;-47
2023/12/24 06:36:29;;;;;;;;;;;;;;;19.19;56.64;100362.16;7394228;19;1590;-48
2023/12/24 06:38:57;;;;;;;;;;;;;;;19.21;56.62;100365.53;7394103;19;1531;-48
2023/12/24 06:41:28;;;;;;;;;;;;;;;19.18;56.57;100347.94;7394939;19;1142;-48
2023/12/24 06:43:56;;;;;;;;;;;;;;;19.25;56.57;100383.88;7391053;19;1493;-48
2023/12/24 06:46:25;;;;;;;;;;;;;;;19.24;56.46;100378.66;7393794;19;1377;-48
2023/12/24 06:48:53;;;;;;;;;;;;;;;19.23;56.53;100375.13;7391846;19;1861;-48
2023/12/24 06:51:22;;;;;;;;;;;;;;;19.12;56.27;100371.78;7392471;19;1539;-47
2023/12/24 06:53:50;;;;;;;;;;;;;;;19.23;56.38;100380.47;7392373;19;1811;-48
2023/12/24 06:56:18;;;;;;;;;;;;;;;19.25;56.44;100385.72;7393254;19;1330;-48
2023/12/24 06:58:49;;;;;;;;;;;;;;;19.33;56.43;100372.41;7393119;19;1514;-48
2023/12/24 07:01:17;;;;;;;;;;;;;;;19.33;55.98;100358.16;7393065;19;1231;-48
2023/12/24 07:03:46;;;;;;;;;;;;;;;19.40;56.07;100353.91;7392994;19;1404;-48
2023/12/24 07:06:14;;;;;;;;;;;;;;;19.32;56.10;100335.88;7392848;19;1550;-48
2023/12/24 07:08:42;;;;;;;;;;;;;;;19.31;56.38;100355.63;7392336;19;1834;-48
2023/12/24 07:11:10;;;;;;;;;;;;;;;19.36;56.08;100377.50;7392516;19;1579;-47
2023/12/24 07:13:39;;;;;;;;;;;;;;;19.39;55.93;100366.44;7392800;19;1891;-48
2023/12/24 07:16:10;;;;;;;;;;;;;;;19.41;55.84;100388.59;7394005;19;1512;-48
2023/12/24 07:18:39;;;;;;;;;;;;;;;19.43;56.17;100396.50;7393117;19;1531;-48
2023/12/24 07:21:08;;;;;;;;;;;;;;;19.39;55.88;100385.22;7393366;19;1506;-47
2023/12/24 07:23:33;;;;;;;;;;;;;;;19.43;55.94;100381.25;7377951;19;1671;-47
2023/12/24 07:26:02;;;;;;;;;;;;;;;19.44;56.06;100387.47;7392129;19;1255;-48
2023/12/24 07:28:30;;;;;;;;;;;;;;;19.46;55.98;100372.94;7390956;19;1861;-48
2023/12/24 07:30:58;;;;;;;;;;;;;;;19.51;55.95;100372.47;7392274;19;1932;-47
2023/12/24 07:33:29;;;;;;;;;;;;;;;19.39;55.78;100368.28;7391590;19;1442;-48
2023/12/24 07:35:57;;;;;;;;;;;;;;;19.26;56.94;100371.31;7390135;19;1393;-48
2023/12/24 07:38:29;;;;;;;;;;;;;;;19.26;56.94;100390.94;7390819;19;1479;-48
2023/12/24 07:40:57;;;;;;;;;;;;;;;19.27;56.62;100383.72;7391670;19;1210;-48
2023/12/24 07:43:27;;;;;;;;;;;;;;;19.26;56.98;100376.69;7389846;19;1389;-48
2023/12/24 07:45:56;;;;;;;;;;;;;;;19.32;57.11;100392.19;7390687;19;1385;-48
2023/12/24 07:48:25;;;;;;;;;;;;;;;19.43;57.04;100377.72;7386231;19;1848;-52
2023/12/24 07:50:56;;;;;;;;;;;;;;;19.41;57.12;100377.88;7388035;19;1469;-48
2023/12/24 07:53:24;;;;;;;;;;;;;;;19.40;57.10;100399.50;7392128;19;1653;-48
2023/12/24 07:55:52;;;;;;;;;;;;;;;19.48;57.12;100399.59;7387136;19;1626;-48
2023/12/24 07:58:21;;;;;;;;;;;;;;;19.51;57.21;100401.13;7387409;19;1329;-48
2023/12/24 08:00:50;;;;;;;;;;;;;;;19.42;57.43;100401.03;7389321;19;1286;-48
2023/12/24 08:03:18;;;;;;;;;;;;;;;19.41;56.97;100403.84;7387653;19;1925;-47
2023/12/24 08:05:46;;;;;;;;;;;;;;;19.39;56.80;100393.25;7388444;19;1559;-48
2023/12/24 08:08:17;;;;;;;;;;;;;;;19.41;56.55;100423.47;7388803;19;1930;-47
2023/12/24 08:10:45;;;;;;;;;;;;;;;19.62;56.13;100414.38;7386052;19;1505;-47
2023/12/24 08:13:14;;;;;;;;;;;;;;;19.75;55.84;100414.03;7382182;19;1328;-47
2023/12/24 08:15:42;;;;;;;;;;;;;;;19.76;55.88;100427.31;7383538;19;1547;-47
2023/12/24 08:18:10;;;;;;;;;;;;;;;19.79;56.00;100432.38;7387398;19;1551;-47
2023/12/24 08:20:39;;;;;;;;;;;;;;;19.79;56.44;100427.00;7388538;19;1830;-47
2023/12/24 08:23:09;;;;;;;;;;;;;;;19.75;56.83;100409.50;7372605;19;1144;-47
2023/12/24 08:25:40;;;;;;;;;;;;;;;19.85;56.91;100394.19;7389500;19;1080;-47
2023/12/24 08:28:08;;;;;;;;;;;;;;;19.86;57.02;100393.22;7389753;19;1890;-47
2023/12/24 08:30:37;;;;;;;;;;;;;;;19.66;57.53;100387.09;7387695;19;1543;-46
2023/12/24 08:33:05;;;;;;;;;;;;;;;19.23;59.01;100403.78;7387536;19;1716;-46
2023/12/24 08:35:34;;;;;;;;;;;;;;;18.89;59.81;100385.53;7387409;19;1705;-46
2023/12/24 08:38:03;;;;;;;;;;;;;;;19.03;59.56;100393.09;7385712;19;1253;-46
2023/12/24 08:40:31;;;;;;;;;;;;;;;19.34;57.44;100400.94;7385938;19;1590;-47
2023/12/24 08:43:02;;;;;;;;;;;;;;;19.74;56.35;100391.75;7387280;19;1159;-47
2023/12/24 08:45:30;;;;;;;;;;;;;;;19.55;57.06;100387.28;7391208;19;1298;-47
2023/12/24 08:47:59;;;;;;;;;;;;;;;19.01;58.18;100397.75;7388759;19;1864;-46
2023/12/24 08:50:27;;;;;;;;;;;;;;;18.65;58.91;100397.50;7389226;19;1606;-47
2023/12/24 08:52:55;;;;;;;;;;;;;;;18.68;58.34;100399.91;7389554;19;1613;-47
2023/12/24 08:55:24;;;;;;;;;;;;;;;18.95;57.59;100395.66;7384948;19;1731;-47
2023/12/24 08:57:52;;;;;;;;;;;;;;;19.22;57.45;100396.75;7382952;19;1640;-47
2023/12/24 09:00:24;;;;;;;;;;;;;;;19.48;56.76;100403.13;7388453;19;1655;-46
2023/12/24 09:02:52;;;;;;;;;;;;;;;19.50;57.09;100404.78;7389523;19;1430;-46
2023/12/24 09:05:20;;;;;;;;;;;;;;;19.61;56.88;100402.75;7388335;19;1423;-46
2023/12/24 09:07:49;;;;;;;;;;;;;;;19.51;57.22;100385.03;7387912;19;1356;-47
2023/12/24 09:10:17;;;;;;;;;;;;;;;19.45;57.40;100395.34;7388751;19;1876;-53
2023/12/24 09:12:45;;;;;;;;;;;;;;;19.38;57.96;100380.03;7392910;19;1566;-46
2023/12/24 09:15:14;;;;;;;;;;;;;;;19.41;57.92;100377.88;7393960;19;1440;-47
2023/12/24 09:17:44;;;;;;;;;;;;;;;19.40;58.02;100373.53;7395329;19;1738;-47
2023/12/24 09:20:13;;;;;;;;;;;;;;;19.41;58.01;100364.47;7396100;19;1585;-47
2023/12/24 09:22:41;;;;;;;;;;;;;;;19.42;58.02;100363.50;7392674;19;1552;-47
2023/12/24 09:25:10;;;;;;;;;;;;;;;19.41;57.93;100364.47;7376968;19;1515;-47
2023/12/24 09:27:38;;;;;;;;;;;;;;;19.31;58.08;100376.25;7394192;19;1448;-47
2023/12/24 09:30:07;;;;;;;;;;;;;;;19.22;58.24;100383.34;7391463;19;1855;-46
2023/12/24 09:32:36;;;;;;;;;;;;;;;19.12;58.45;100356.56;7388732;19;1385;-46
2023/12/24 09:35:07;;;;;;;;;;;;;;;19.03;58.75;100354.75;7396278;19;1292;-45
2023/12/24 09:37:35;;;;;;;;;;;;;;;19.12;59.05;100353.00;7392511;19;1541;-49
2023/12/24 09:40:04;;;;;;;;;;;;;;;19.19;58.97;100349.59;7396375;19;1553;-49
2023/12/24 09:42:33;;;;;;;;;;;;;;;19.13;59.19;100349.34;7392892;19;1464;-49
2023/12/24 09:45:01;;;;;;;;;;;;;;;19.07;59.41;100345.41;7393064;19;1672;-49
2023/12/24 09:47:29;;;;;;;;;;;;;;;19.01;59.63;100337.97;7394292;19;1331;-47
2023/12/24 09:50:00;;;;;;;;;;;;;;;19.02;59.91;100339.63;7393648;19;1857;-47
2023/12/24 09:52:31;;;;;;;;;;;;;;;18.95;59.80;100336.72;7393652;19;1833;-47
2023/12/24 09:55:00;;;;;;;;;;;;;;;18.91;60.06;100319.25;7394671;19;1833;-47
2023/12/24 09:57:28;;;;;;;;;;;;;;;18.97;60.21;100313.28;7395351;19;1417;-47
2023/12/24 09:59:56;;;;;;;;;;;;;;;18.99;59.85;100284.50;7394318;19;1771;-47
2023/12/24 10:02:25;;;;;;;;;;;;;;;18.97;59.88;100307.09;7393647;19;1440;-48
2023/12/24 10:04:53;;;;;;;;;;;;;;;18.90;59.92;100290.78;7393295;19;1469;-47
2023/12/24 10:07:21;;;;;;;;;;;;;;;18.97;59.83;100291.03;7393738;19;1550;-47
2023/12/24 10:09:52;;;;;;;;;;;;;;;18.96;59.77;100300.03;7389776;19;1865;-47
2023/12/24 10:12:21;;;;;;;;;;;;;;;18.90;60.24;100296.13;7391680;19;1296;-47
2023/12/24 10:14:56;;;;;;;;;;;;;;;18.88;60.19;100276.69;7393577;19;1695;-48
2023/12/24 10:17:29;;;;;;;;;;;;;;;18.86;60.48;100262.56;7392704;19;1444;-46
2023/12/24 10:19:57;;;;;;;;;;;;;;;18.87;60.51;100258.91;7393753;19;1398;-48
2023/12/24 10:22:26;;;;;;;;;;;;;;;18.87;60.52;100265.09;7393576;19;1483;-47
2023/12/24 10:25:05;;;;;;;;;;;;;;;18.96;60.42;100278.59;7374300;19;2196;-47
2023/12/24 10:27:34;;;;;;;;;;;;;;;19.02;59.91;100268.16;7391312;19;1877;-47
2023/12/24 10:30:13;;;;;;;;;;;;;;;19.03;59.94;100275.19;7386174;19;1851;-47
2023/12/24 10:32:41;;;;;;;;;;;;;;;19.03;60.23;100275.19;7393228;19;1505;-42
2023/12/24 10:35:10;;;;;;;;;;;;;;;19.12;59.96;100268.13;7390094;19;1831;-46
2023/12/24 10:37:38;;;;;;;;;;;;;;;19.24;59.88;100266.09;7393471;19;1600;-45
2023/12/24 10:40:10;;;;;;;;;;;;;;;19.16;59.73;100255.25;7392512;19;1477;-46
2023/12/24 10:42:39;;;;;;;;;;;;;;;19.30;59.26;100256.56;7394097;19;1603;-47
2023/12/24 10:45:08;;;;;;;;;;;;;;;19.42;59.10;100269.63;7391808;19;1631;-46
2023/12/24 10:47:36;;;;;;;;;;;;;;;19.34;59.23;100291.00;7394102;19;1479;-46
2023/12/24 10:50:05;;;;;;;;;;;;;;;19.25;59.72;100273.13;7392655;19;1863;-46
2023/12/24 10:52:34;;;;;;;;;;;;;;;19.42;59.10;100258.91;7392807;19;1819;-46
2023/12/24 10:55:03;;;;;;;;;;;;;;;19.53;59.09;100265.06;7393711;19;1899;-45
2023/12/24 10:57:39;;;;;;;;;;;;;;;19.56;58.87;100265.59;7393642;19;1526;-45
2023/12/24 11:00:12;;;;;;;;;;;;;;;19.61;58.66;100273.19;7393991;19;1216;-45
2023/12/24 11:02:45;;;;;;;;;;;;;;;19.61;58.59;100268.66;7392966;19;1510;-44
2023/12/24 11:05:14;;;;;;;;;;;;;;;19.68;58.41;100285.84;7394212;19;1389;-45
2023/12/24 11:07:52;;;;;;;;;;;;;;;19.71;58.63;100290.09;7393876;19;1554;-46
2023/12/24 11:10:35;;;;;;;;;;;;;;;19.57;58.59;100277.16;7392574;19;1827;-44
2023/12/24 11:13:09;;;;;;;;;;;;;;;19.56;58.62;100294.28;7393923;19;1830;-44
2023/12/24 11:15:44;;;;;;;;;;;;;;;19.70;58.48;100284.88;7393736;19;1760;-45
2023/12/24 11:18:13;;;;;;;;;;;;;;;19.85;58.22;100275.28;7393384;19;1491;-46
2023/12/24 11:20:40;;;;;;;;;;;;;;;19.86;58.54;100287.72;7391898;19;1553;-45
2023/12/24 11:23:16;;;;;;;;;;;;;;;19.70;58.78;100279.50;7388482;19;1644;-45
2023/12/24 11:25:45;;;;;;;;;;;;;;;19.56;59.41;100276.31;7376796;19;1633;-46
2023/12/24 11:28:37;;;;;;;;;;;;;;;19.58;59.42;100286.91;7391390;19;1557;-44
2023/12/24 11:31:04;;;;;;;;;;;;;;;19.53;59.75;100275.78;7389097;19;1857;-44
2023/12/24 11:33:48;;;;;;;;;;;;;;;19.54;59.89;100281.00;7389496;19;1635;-44
2023/12/24 11:36:18;;;;;;;;;;;;;;;19.44;60.27;100289.09;7391510;19;1533;-46
2023/12/24 11:38:47;;;;;;;;;;;;;;;19.40;60.43;100276.16;7390331;19;1378;-46
2023/12/24 11:41:14;;;;;;;;;;;;;;;19.38;60.73;100284.34;7392853;19;1394;-46
2023/12/24 11:43:53;;;;;;;;;;;;;;;19.40;60.69;100273.47;7390847;19;1559;-46
2023/12/24 11:46:21;;;;;;;;;;;;;;;19.45;60.84;100274.69;7392373;19;1717;-46
2023/12/24 11:48:47;;;;;;;;;;;;;;;19.46;60.69;100256.78;7391912;19;1841;-46
2023/12/24 11:51:15;;;;;;;;;;;;;;;19.35;60.81;100278.44;7387345;19;1550;-45
2023/12/24 11:53:45;;;;;;;;;;;;;;;19.26;60.78;100298.94;7391971;19;1551;-46
2023/12/24 11:56:15;;;;;;;;;;;;;;;19.30;60.50;100292.28;7391115;19;1599;-46
2023/12/24 11:58:59;;;;;;;;;;;;;;;19.33;60.47;100277.75;7389016;19;1545;-46
2023/12/24 12:01:28;;;;;;;;;;;;;;;19.28;60.57;100295.13;7389909;19;1475;-50
2023/12/24 12:03:57;;;;;;;;;;;;;;;19.26;60.42;100294.41;7388672;19;1511;-46
2023/12/24 12:06:26;;;;;;;;;;;;;;;19.27;60.21;100301.44;7387947;19;1844;-45
2023/12/24 12:08:54;;;;;;;;;;;;;;;18.99;60.26;100267.59;7387280;19;1878;-46
2023/12/24 12:11:23;;;;;;;;;;;;;;;19.18;60.23;100291.63;7388744;19;1549;-47
2023/12/24 12:13:53;;;;;;;;;;;;;;;19.21;60.25;100301.22;7386907;19;1750;-46
2023/12/24 12:16:22;;;;;;;;;;;;;;;19.19;60.28;100304.03;7386905;19;1883;-46
2023/12/24 12:18:50;;;;;;;;;;;;;;;19.21;60.10;100298.53;7387245;19;1828;-46
2023/12/24 12:21:19;;;;;;;;;;;;;;;19.22;60.03;100310.97;7387474;19;1632;-45
2023/12/24 12:23:47;;;;;;;;;;;;;;;19.19;60.10;100313.91;7380870;19;1522;-47
2023/12/24 12:26:15;;;;;;;;;;;;;;;19.20;60.14;100311.09;7384195;19;1613;-46
2023/12/24 12:28:44;;;;;;;;;;;;;;;19.18;60.15;100304.19;7390589;19;1755;-46
2023/12/24 12:31:15;;;;;;;;;;;;;;;19.19;59.98;100303.19;7387980;19;1862;-47
2023/12/24 12:33:43;;;;;;;;;;;;;;;19.25;59.99;100308.81;7384321;19;1685;-46
2023/12/24 12:36:13;;;;;;;;;;;;;;;19.30;59.61;100308.38;7390260;19;1754;-46
2023/12/24 12:38:41;;;;;;;;;;;;;;;19.28;59.90;100288.91;7390072;19;1611;-47
2023/12/24 12:41:09;;;;;;;;;;;;;;;19.03;59.78;100231.47;7390400;19;1727;-46
2023/12/24 12:43:38;;;;;;;;;;;;;;;19.23;59.83;100297.38;7387386;19;1844;-46
2023/12/24 12:46:06;;;;;;;;;;;;;;;19.26;59.82;100288.22;7386421;19;1497;-46
2023/12/24 12:48:37;;;;;;;;;;;;;;;19.36;59.50;100304.22;7386718;19;1727;-46
2023/12/24 12:51:06;;;;;;;;;;;;;;;19.24;59.89;100308.97;7387535;19;1862;-45
2023/12/24 12:53:34;;;;;;;;;;;;;;;19.25;59.66;100291.88;7384425;19;1660;-45
2023/12/24 12:56:07;;;;;;;;;;;;;;;19.24;59.83;100303.63;7387738;19;1484;-46
2023/12/24 12:58:35;;;;;;;;;;;;;;;19.22;59.98;100289.50;7387319;19;1719;-46